CPT weather

Cape Town International Airport
Cape Town, Western Cape, South Africa

Public forecast

Using degrees Celsius for public forecast. Weather courtesy of forecast.io.

Current aviation weather report (METAR) for Cape Town International Airport

Retrieved 2019/10/19 06:00 UTC (53 minutes ago):

FACT 190600Z 21009KT CAVOK 17/16 Q1012 NOSIG

Aviation forecast (TAF) for Cape Town International Airport

Retrieved 2019/10/19 06:00 UTC (53 minutes ago):

TAF FACT 190400Z 1906/2012 18012KT CAVOK TX23/1912Z TN14/2004Z FM200600 34010KT 9999 SCT020